Time;durP1;ratioP1;P1;durP2;ratioP2;P2;SDS_P1;SDS_P2;PMS_P1;PMS_P2;Temp;Humidity;BMP_temperature;BMP_pressure;BME280_temperature;BME280_humidity;BME280_pressure;Samples;Min_cycle;Max_cycle;Signal;HPM_P1;HPM_P2
2022/12/26 00:01:24;;;;;;;853.03;785.73;;;9.20;23.90;;;;;;5054948;28;20212;-68
2022/12/26 00:03:50;;;;;;;430.97;401.93;;;9.20;24.10;;;;;;5053517;28;20181;-68
2022/12/26 00:06:18;;;;;;;544.27;507.47;;;9.20;24.30;;;;;;5054739;28;20421;-70
2022/12/26 00:08:46;;;;;;;670.27;619.23;;;9.10;23.80;;;;;;5053588;28;20185;-68
2022/12/26 00:11:12;;;;;;;657.00;609.07;;;9.10;23.90;;;;;;5053617;28;20424;-70
2022/12/26 00:13:41;;;;;;;663.57;616.13;;;9.10;24.20;;;;;;5053273;28;20457;-68
2022/12/26 00:16:13;;;;;;;506.97;469.33;;;9.00;24.10;;;;;;5053465;28;20556;-68
2022/12/26 00:18:39;;;;;;;439.30;408.73;;;9.00;24.20;;;;;;5053381;28;20424;-68
2022/12/26 00:21:06;;;;;;;305.73;283.87;;;9.00;24.40;;;;;;5054552;28;20457;-68
2022/12/26 00:23:32;;;;;;;240.63;225.27;;;9.00;25.00;;;;;;5054372;28;20177;-68
2022/12/26 00:26:03;;;;;;;515.03;478.97;;;8.90;25.10;;;;;;5053357;28;20474;-68
2022/12/26 00:28:28;;;;;;;894.23;827.47;;;8.90;25.10;;;;;;5054568;28;20844;-68
2022/12/26 00:30:54;;;;;;;814.17;752.80;;;8.90;25.20;;;;;;5055463;28;20467;-68
2022/12/26 00:33:19;;;;;;;429.87;400.03;;;8.90;25.10;;;;;;5053845;28;20269;-69
2022/12/26 00:35:45;;;;;;;210.67;195.50;;;8.80;25.20;;;;;;5054508;28;20175;-69
2022/12/26 00:38:10;;;;;;;431.27;400.50;;;8.80;25.50;;;;;;5054658;28;20178;-69
2022/12/26 00:40:41;;;;;;;354.63;329.83;;;8.80;25.40;;;;;;5052879;28;20214;-69
2022/12/26 00:43:07;;;;;;;530.40;489.53;;;8.80;25.70;;;;;;5052764;28;20261;-69
2022/12/26 00:45:33;;;;;;;597.00;550.27;;;8.80;25.60;;;;;;5053016;28;20862;-69
2022/12/26 00:47:58;;;;;;;419.70;390.37;;;8.80;25.50;;;;;;5053635;28;20180;-69
2022/12/26 00:50:24;;;;;;;478.87;441.43;;;8.80;25.50;;;;;;5052849;28;20232;-69
2022/12/26 00:52:49;;;;;;;625.00;576.87;;;8.90;25.40;;;;;;5052583;28;20235;-69
2022/12/26 00:55:15;;;;;;;275.47;257.40;;;8.90;25.20;;;;;;5052798;28;20236;-69
2022/12/26 00:57:40;;;;;;;544.03;502.50;;;9.00;25.00;;;;;;5054031;28;20227;-69
2022/12/26 01:00:07;;;;;;;524.57;484.40;;;9.00;24.90;;;;;;5053780;28;20267;-69
2022/12/26 01:02:38;;;;;;;238.33;222.53;;;9.00;25.20;;;;;;5052443;28;20188;-69
2022/12/26 01:05:05;;;;;;;357.63;334.03;;;9.00;24.90;;;;;;5054295;28;20405;-69
2022/12/26 01:07:38;;;;;;;363.30;337.97;;;9.00;24.80;;;;;;5053895;28;20879;-69
2022/12/26 01:10:05;;;;;;;431.67;400.57;;;9.10;24.80;;;;;;5053821;28;20435;-69
2022/12/26 01:12:31;;;;;;;381.30;354.10;;;9.10;24.70;;;;;;5053406;28;20541;-69
2022/12/26 01:14:57;;;;;;;364.27;338.43;;;9.00;24.90;;;;;;5053654;28;20495;-69
2022/12/26 01:17:24;;;;;;;381.03;354.43;;;9.00;24.90;;;;;;5052641;28;20230;-69
2022/12/26 01:19:49;;;;;;;567.43;525.37;;;9.10;24.80;;;;;;5052111;28;20437;-69
2022/12/26 01:22:15;;;;;;;451.43;420.37;;;9.10;25.00;;;;;;5053314;28;20473;-69
2022/12/26 01:24:40;;;;;;;779.20;722.93;;;9.10;24.50;;;;;;5052307;28;20191;-69
2022/12/26 01:27:06;;;;;;;353.67;329.50;;;9.10;24.70;;;;;;5052119;28;20191;-69
2022/12/26 01:29:31;;;;;;;394.37;365.00;;;9.10;24.50;;;;;;5053371;28;20639;-69
2022/12/26 01:31:57;;;;;;;376.00;350.40;;;9.20;24.10;;;;;;5051867;28;20190;-69
2022/12/26 01:34:23;;;;;;;352.27;326.23;;;9.20;24.10;;;;;;5052076;28;20188;-69
2022/12/26 01:36:48;;;;;;;422.33;389.80;;;9.20;24.00;;;;;;5052074;28;20268;-69
2022/12/26 01:39:14;;;;;;;543.20;503.37;;;9.30;24.10;;;;;;5051824;28;20217;-68
2022/12/26 01:41:40;;;;;;;359.13;334.73;;;9.30;23.80;;;;;;5052745;28;20256;-70
2022/12/26 01:44:44;;;;;;;431.43;399.70;;;9.30;23.90;;;;;;5051842;28;20413;-70
2022/12/26 01:47:10;;;;;;;379.67;352.73;;;9.40;23.80;;;;;;5051634;28;20188;-70
2022/12/26 01:49:41;;;;;;;286.33;265.97;;;9.40;23.60;;;;;;5051872;28;20656;-69
2022/12/26 01:52:12;;;;;;;537.23;495.53;;;9.40;23.60;;;;;;5052772;28;20178;-69
2022/12/26 01:54:42;;;;;;;458.63;424.40;;;9.40;23.40;;;;;;5051725;28;20423;-69
2022/12/26 01:57:21;;;;;;;374.67;346.30;;;9.40;23.40;;;;;;5053135;28;20456;-69
2022/12/26 01:59:49;;;;;;;332.87;309.93;;;9.40;23.40;;;;;;5050723;28;20436;-69
2022/12/26 02:02:17;;;;;;;365.30;337.80;;;9.40;23.40;;;;;;5051326;28;20798;-69
2022/12/26 02:07:34;;;;;;;250.10;232.30;;;9.30;23.50;;;;;;5053108;28;20500;-70
2022/12/26 02:10:01;;;;;;;484.87;450.57;;;9.30;23.80;;;;;;5052655;28;20421;-69
2022/12/26 02:12:33;;;;;;;525.60;489.53;;;9.30;23.50;;;;;;5050942;28;20421;-70
2022/12/26 02:15:00;;;;;;;413.10;382.47;;;9.30;23.60;;;;;;5052688;28;20970;-70
2022/12/26 02:17:26;;;;;;;365.90;339.30;;;9.30;23.80;;;;;;5051710;28;20448;-70
2022/12/26 02:20:17;;;;;;;232.60;215.00;;;9.30;23.70;;;;;;5051376;28;20965;-70
2022/12/26 02:22:54;;;;;;;386.00;358.40;;;9.30;23.60;;;;;;5050876;28;20424;-70
2022/12/26 02:25:56;;;;;;;522.97;484.97;;;9.30;23.50;;;;;;5052225;28;20423;-70
2022/12/26 02:28:28;;;;;;;359.37;336.23;;;9.30;23.50;;;;;;5052391;28;20421;-70
2022/12/26 02:31:15;;;;;;;332.00;307.80;;;9.30;23.60;;;;;;5051239;28;20436;-70
2022/12/26 02:34:02;;;;;;;328.30;304.97;;;9.30;23.60;;;;;;5050754;28;20466;-70
2022/12/26 02:37:04;;;;;;;412.77;385.03;;;9.40;23.60;;;;;;5051128;28;20474;-70
2022/12/26 02:39:48;;;;;;;467.10;437.13;;;9.40;23.30;;;;;;5050713;28;20494;-70
2022/12/26 02:42:42;;;;;;;329.67;308.53;;;9.30;23.30;;;;;;5050426;28;21041;-70
2022/12/26 02:48:27;;;;;;;504.27;468.83;;;9.30;23.50;;;;;;5052238;28;20415;-69
2022/12/26 03:14:27;;;;;;;256.00;237.83;;;9.80;22.20;;;;;;5052283;28;20413;-69
2022/12/26 03:20:00;;;;;;;448.43;419.07;;;9.90;21.70;;;;;;5052040;28;20532;-69
2022/12/26 03:22:51;;;;;;;768.70;713.63;;;9.90;21.70;;;;;;5050705;28;20436;-69
2022/12/26 03:28:10;;;;;;;214.33;198.87;;;10.10;20.60;;;;;;5052057;28;20451;-69
2022/12/26 03:30:47;;;;;;;323.70;298.90;;;10.20;20.30;;;;;;5051681;28;20433;-69
2022/12/26 03:36:33;;;;;;;206.17;191.27;;;10.20;20.20;;;;;;5052108;28;20924;-69
2022/12/26 04:44:24;;;;;;;561.50;523.40;;;10.60;18.70;;;;;;5054627;28;20887;-70
2022/12/26 04:46:52;;;;;;;330.33;305.47;;;10.60;18.50;;;;;;5054495;28;20427;-69
2022/12/26 04:52:04;;;;;;;330.47;307.20;;;10.60;18.30;;;;;;5054122;28;20424;-70
2022/12/26 04:54:30;;;;;;;403.57;373.97;;;10.60;18.00;;;;;;5054203;28;20421;-70
2022/12/26 04:56:56;;;;;;;561.33;522.07;;;10.60;18.30;;;;;;5052909;28;20796;-70
2022/12/26 04:59:22;;;;;;;409.57;379.27;;;10.60;18.00;;;;;;5052677;28;20437;-69
2022/12/26 05:10:14;;;;;;;399.13;370.43;;;10.60;18.10;;;;;;5054137;28;20550;-69
2022/12/26 05:12:40;;;;;;;418.83;388.73;;;10.60;18.10;;;;;;5053870;28;20530;-69
2022/12/26 05:15:06;;;;;;;601.30;557.70;;;10.60;18.00;;;;;;5053974;28;20417;-70
2022/12/26 05:29:05;;;;;;;432.23;401.20;;;10.50;18.10;;;;;;5053717;28;20452;-69
2022/12/26 05:31:31;;;;;;;507.63;469.60;;;10.50;18.20;;;;;;5053520;28;20508;-69
2022/12/26 05:34:16;;;;;;;405.20;373.73;;;10.60;18.50;;;;;;5052269;28;20190;-69
2022/12/26 05:36:46;;;;;;;395.87;368.13;;;10.50;18.60;;;;;;5053690;28;20178;-69
2022/12/26 05:39:13;;;;;;;537.63;498.10;;;10.60;18.70;;;;;;5070652;22;20487;-70
2022/12/26 05:41:39;;;;;;;410.10;381.53;;;10.50;18.60;;;;;;5112296;28;20471;-71
2022/12/26 05:44:06;;;;;;;452.87;419.07;;;10.50;18.60;;;;;;5096030;28;20911;-70
2022/12/26 05:46:32;;;;;;;192.17;178.60;;;10.50;18.70;;;;;;5097324;28;20908;-70
2022/12/26 05:48:58;;;;;;;382.07;353.93;;;10.50;18.70;;;;;;5097338;28;20900;-70
2022/12/26 05:51:23;;;;;;;338.10;314.17;;;10.40;18.30;;;;;;5097368;28;20570;-71
2022/12/26 05:53:50;;;;;;;203.73;187.47;;;10.40;18.70;;;;;;5097852;28;20169;-70
2022/12/26 05:56:17;;;;;;;390.27;364.23;;;10.30;18.50;;;;;;5101148;28;20195;-70
2022/12/26 05:58:43;;;;;;;321.63;296.60;;;10.30;18.50;;;;;;5098094;28;20415;-71
2022/12/26 06:01:14;;;;;;;552.40;509.83;;;10.20;18.50;;;;;;5113461;28;20462;-70
2022/12/26 06:03:44;;;;;;;360.83;335.00;;;10.20;18.50;;;;;;5096650;28;20203;-71
2022/12/26 06:06:10;;;;;;;445.43;413.93;;;10.20;18.50;;;;;;5096234;28;20403;-71
2022/12/26 06:08:35;;;;;;;293.10;271.83;;;10.30;18.60;;;;;;5094322;28;20430;-71
2022/12/26 06:11:10;;;;;;;436.87;407.27;;;10.30;18.50;;;;;;5094484;28;20443;-71
2022/12/26 06:13:35;;;;;;;471.77;436.77;;;10.30;18.50;;;;;;5112196;28;20189;-70
2022/12/26 06:16:06;;;;;;;551.73;511.20;;;10.30;18.50;;;;;;5113149;28;20438;-72
2022/12/26 06:18:31;;;;;;;410.63;379.73;;;10.40;18.60;;;;;;5096562;28;20230;-70
2022/12/26 06:20:57;;;;;;;566.67;524.57;;;10.30;18.90;;;;;;5097822;28;20471;-72
2022/12/26 06:23:23;;;;;;;496.40;461.80;;;10.40;18.60;;;;;;5097337;28;20423;-71
2022/12/26 06:25:55;;;;;;;490.13;453.60;;;10.30;18.50;;;;;;5097058;28;20173;-69
2022/12/26 06:28:23;;;;;;;262.00;240.93;;;10.30;18.50;;;;;;5096261;28;20248;-68
2022/12/26 06:30:49;;;;;;;623.23;578.90;;;10.30;18.50;;;;;;5094018;28;20805;-69
2022/12/26 06:33:15;;;;;;;298.13;276.90;;;10.20;18.50;;;;;;5093136;28;20425;-68
2022/12/26 06:35:40;;;;;;;443.37;412.23;;;10.10;19.00;;;;;;5108835;28;20995;-69
2022/12/26 06:38:06;;;;;;;480.87;447.07;;;10.00;19.30;;;;;;5093067;28;20264;-69
2022/12/26 06:40:31;;;;;;;491.30;455.50;;;10.00;19.40;;;;;;5092629;28;20729;-69
2022/12/26 06:42:57;;;;;;;517.83;478.87;;;10.10;19.40;;;;;;5093278;28;20185;-69
2022/12/26 06:45:22;;;;;;;420.07;388.93;;;10.10;19.30;;;;;;5092851;28;20215;-69
2022/12/26 06:47:48;;;;;;;167.80;154.80;;;10.10;19.10;;;;;;5092898;28;20177;-69
2022/12/26 06:50:13;;;;;;;358.07;333.07;;;10.10;18.90;;;;;;5092964;28;20197;-69
2022/12/26 06:52:39;;;;;;;320.30;296.33;;;10.20;19.00;;;;;;5092782;28;20188;-69
2022/12/26 06:55:05;;;;;;;532.97;491.60;;;10.10;19.00;;;;;;5092946;28;20181;-69
2022/12/26 06:57:31;;;;;;;482.30;449.70;;;10.20;18.90;;;;;;5093124;28;20260;-69
2022/12/26 06:59:56;;;;;;;449.63;416.73;;;10.10;19.00;;;;;;5108836;28;20530;-69
2022/12/26 07:02:22;;;;;;;248.17;229.90;;;10.10;19.10;;;;;;5093187;28;20219;-69
2022/12/26 07:04:47;;;;;;;617.20;575.83;;;10.10;19.30;;;;;;5092835;28;20680;-69
2022/12/26 07:07:13;;;;;;;260.17;241.53;;;10.10;19.50;;;;;;5093409;28;20763;-69
2022/12/26 07:09:39;;;;;;;417.67;388.93;;;10.10;19.50;;;;;;5093155;28;20219;-69
2022/12/26 07:12:04;;;;;;;408.40;378.33;;;10.00;19.60;;;;;;5093062;28;20231;-70
2022/12/26 07:14:30;;;;;;;391.27;363.63;;;10.00;20.00;;;;;;5093016;28;20185;-69
2022/12/26 07:16:55;;;;;;;382.13;355.93;;;9.90;20.70;;;;;;5108883;28;20284;-70
2022/12/26 07:19:21;;;;;;;435.83;403.80;;;9.90;20.90;;;;;;5093102;28;20754;-69
2022/12/26 07:21:47;;;;;;;358.93;331.97;;;9.90;21.20;;;;;;5108470;28;20204;-69
2022/12/26 07:24:14;;;;;;;322.30;299.37;;;9.90;20.90;;;;;;5108951;28;20227;-69
2022/12/26 07:26:40;;;;;;;348.73;324.37;;;9.90;20.90;;;;;;5093484;28;20641;-69
2022/12/26 07:29:06;;;;;;;439.50;406.57;;;9.90;20.80;;;;;;5092602;28;20494;-69
2022/12/26 07:31:31;;;;;;;366.27;340.67;;;10.00;20.20;;;;;;5093432;28;20189;-69
2022/12/26 07:33:57;;;;;;;408.80;377.93;;;10.00;20.10;;;;;;5091282;28;20267;-69
2022/12/26 07:36:24;;;;;;;296.77;275.07;;;10.00;20.20;;;;;;5093233;28;20696;-69
2022/12/26 07:38:49;;;;;;;478.10;445.70;;;9.90;20.90;;;;;;5093068;28;20177;-69
2022/12/26 07:43:59;;;;;;;354.43;329.07;;;9.90;21.30;;;;;;5092855;28;20183;-69
2022/12/26 07:46:25;;;;;;;378.90;354.13;;;9.90;21.50;;;;;;5091390;28;20505;-69
2022/12/26 07:48:50;;;;;;;411.37;382.20;;;9.80;21.40;;;;;;5091960;28;20683;-69
2022/12/26 07:51:16;;;;;;;372.03;345.77;;;9.90;21.50;;;;;;5081916;28;20334;-69
2022/12/26 07:53:41;;;;;;;535.57;497.27;;;9.80;21.30;;;;;;5070758;28;20188;-69
2022/12/26 07:56:07;;;;;;;310.60;288.10;;;9.80;21.50;;;;;;5081580;28;20178;-69
2022/12/26 07:58:33;;;;;;;379.40;353.20;;;9.80;21.40;;;;;;5089713;28;20184;-69
2022/12/26 08:01:02;;;;;;;627.63;582.80;;;9.90;21.30;;;;;;5091832;28;20209;-69
2022/12/26 08:03:28;;;;;;;453.57;423.83;;;10.00;20.50;;;;;;5090232;28;20189;-70
2022/12/26 08:05:54;;;;;;;405.93;375.33;;;10.10;20.30;;;;;;5091920;28;20430;-69
2022/12/26 08:08:20;;;;;;;413.30;384.63;;;10.20;20.10;;;;;;5092724;28;20184;-69
2022/12/26 08:10:46;;;;;;;250.33;231.13;;;10.20;19.70;;;;;;5090398;28;20288;-69
2022/12/26 08:13:11;;;;;;;282.07;261.83;;;10.30;19.50;;;;;;5081673;28;20228;-70
2022/12/26 08:15:38;;;;;;;387.07;359.37;;;10.30;19.50;;;;;;5092546;28;20458;-69
2022/12/26 08:18:04;;;;;;;354.63;328.00;;;10.40;19.20;;;;;;5077068;28;20190;-69
2022/12/26 08:20:30;;;;;;;301.10;279.33;;;10.40;19.10;;;;;;5071317;28;20605;-71
2022/12/26 08:22:55;;;;;;;556.83;516.77;;;10.50;19.10;;;;;;5072034;28;20446;-68
2022/12/26 08:25:21;;;;;;;446.10;414.20;;;10.50;18.90;;;;;;5088120;28;20193;-69
2022/12/26 08:27:46;;;;;;;173.67;160.77;;;10.60;19.60;;;;;;5090152;28;20335;-69
2022/12/26 08:30:12;;;;;;;395.23;366.10;;;10.60;20.40;;;;;;5079975;28;20203;-70
2022/12/26 08:32:38;;;;;;;596.07;554.57;;;10.60;20.30;;;;;;5086001;28;20221;-70
2022/12/26 08:35:03;;;;;;;516.93;478.37;;;10.60;20.10;;;;;;5088049;28;20710;-70
2022/12/26 08:37:29;;;;;;;487.50;451.87;;;10.60;20.50;;;;;;5086807;28;20655;-69
2022/12/26 08:39:55;;;;;;;457.40;425.23;;;10.60;20.40;;;;;;5071051;28;20497;-69
2022/12/26 08:42:21;;;;;;;469.97;435.93;;;10.60;20.10;;;;;;5072767;28;20654;-69
2022/12/26 08:44:47;;;;;;;281.03;258.50;;;10.60;20.50;;;;;;5075410;28;20474;-69
2022/12/26 08:47:14;;;;;;;288.60;266.50;;;10.80;20.50;;;;;;5081314;28;20178;-69
2022/12/26 08:49:40;;;;;;;561.17;519.30;;;10.80;20.50;;;;;;5085680;28;20499;-69
2022/12/26 08:52:06;;;;;;;442.17;410.37;;;10.70;21.00;;;;;;5094510;28;20440;-69
2022/12/26 08:54:32;;;;;;;331.73;305.03;;;10.70;21.70;;;;;;5094959;28;20414;-70
2022/12/26 08:56:57;;;;;;;372.77;342.63;;;10.60;22.60;;;;;;5094329;28;20423;-71
2022/12/26 08:59:23;;;;;;;304.33;281.20;;;10.50;22.90;;;;;;5094538;28;20736;-69
2022/12/26 09:01:48;;;;;;;495.53;457.13;;;10.60;23.00;;;;;;5102007;28;20642;-70
2022/12/26 09:04:14;;;;;;;483.63;445.80;;;10.50;23.40;;;;;;5074562;28;20176;-70
2022/12/26 09:06:40;;;;;;;657.27;611.57;;;10.40;24.50;;;;;;5074308;28;20172;-69
2022/12/26 09:09:10;;;;;;;571.13;530.27;;;10.40;24.60;;;;;;5072610;28;20178;-69
2022/12/26 09:11:36;;;;;;;476.83;440.27;;;10.30;25.70;;;;;;5084756;28;20942;-70
2022/12/26 09:14:03;;;;;;;471.33;431.50;;;10.20;26.50;;;;;;5094585;28;20887;-69
2022/12/26 09:16:32;;;;;;;293.33;271.67;;;10.30;26.70;;;;;;5094231;28;20469;-70
2022/12/26 09:19:00;;;;;;;433.27;402.57;;;10.40;27.60;;;;;;5095522;28;20419;-70
2022/12/26 09:21:26;;;;;;;583.77;543.03;;;10.30;27.00;;;;;;5087716;28;20474;-69
2022/12/26 09:23:57;;;;;;;438.90;404.93;;;10.30;27.50;;;;;;5072950;28;20416;-69
2022/12/26 09:26:22;;;;;;;338.60;315.70;;;10.20;28.50;;;;;;5084311;28;20421;-70
2022/12/26 09:28:48;;;;;;;535.03;496.83;;;10.10;28.80;;;;;;5094733;28;20876;-70
2022/12/26 09:31:16;;;;;;;368.07;344.37;;;10.10;29.80;;;;;;5094952;28;20240;-69
2022/12/26 09:33:42;;;;;;;476.47;439.43;;;10.00;31.00;;;;;;5095764;28;20192;-69
2022/12/26 09:36:11;;;;;;;408.23;379.17;;;9.90;32.20;;;;;;5099445;28;20419;-69
2022/12/26 09:38:36;;;;;;;509.03;473.50;;;10.00;32.60;;;;;;5099356;28;20254;-70
2022/12/26 09:41:20;;;;;;;504.10;469.93;;;10.10;33.60;;;;;;5096509;28;20608;-70
2022/12/26 09:44:24;;;;;;;730.13;673.90;;;10.30;32.90;;;;;;5094454;28;20650;-70
2022/12/26 09:46:54;;;;;;;649.60;600.70;;;10.40;33.50;;;;;;5093802;28;20781;-68
2022/12/26 09:49:24;;;;;;;679.33;628.33;;;10.60;33.90;;;;;;5094262;28;20807;-71
2022/12/26 09:51:57;;;;;;;883.53;813.93;;;10.60;33.90;;;;;;5092073;28;20446;-69
2022/12/26 09:54:29;;;;;;;531.87;493.53;;;10.70;33.50;;;;;;5093639;28;20413;-69
2022/12/26 09:56:55;;;;;;;441.87;409.93;;;10.80;33.40;;;;;;5094226;28;20406;-70
2022/12/26 09:59:24;;;;;;;626.97;580.27;;;10.80;33.20;;;;;;5093687;28;20461;-69
2022/12/26 10:01:51;;;;;;;645.53;596.17;;;10.80;32.60;;;;;;5092925;28;20467;-69
2022/12/26 10:04:27;;;;;;;766.23;699.47;;;10.80;32.60;;;;;;5094568;28;20454;-69
2022/12/26 10:07:16;;;;;;;717.23;661.33;;;10.80;32.20;;;;;;5094292;28;20918;-70
2022/12/26 10:09:55;;;;;;;536.67;497.53;;;10.80;32.80;;;;;;5096609;28;20459;-70
2022/12/26 10:12:31;;;;;;;692.23;638.87;;;10.80;34.00;;;;;;5095968;28;20415;-69
2022/12/26 10:15:21;;;;;;;551.97;509.50;;;10.90;34.80;;;;;;5095511;28;20585;-70
2022/12/26 10:17:49;;;;;;;479.00;445.47;;;10.90;34.60;;;;;;5095250;28;20510;-69
2022/12/26 10:20:27;;;;;;;438.00;405.20;;;10.90;34.00;;;;;;5103704;28;20451;-71
2022/12/26 10:23:11;;;;;;;589.43;546.40;;;11.00;34.00;;;;;;5084339;28;20413;-69
2022/12/26 10:25:44;;;;;;;445.27;414.80;;;11.10;33.70;;;;;;5088465;28;20520;-68
2022/12/26 10:28:45;;;;;;;452.60;418.53;;;11.10;33.30;;;;;;5094525;28;20520;-70
2022/12/26 10:31:33;;;;;;;486.40;452.13;;;11.00;34.00;;;;;;5092890;28;20442;-70
2022/12/26 10:34:23;;;;;;;596.33;547.57;;;11.00;33.80;;;;;;5093697;28;20855;-68
2022/12/26 10:36:57;;;;;;;493.43;458.10;;;10.90;34.30;;;;;;5108656;28;20783;-69
2022/12/26 10:39:44;;;;;;;590.73;545.50;;;10.90;34.00;;;;;;5092936;28;20495;-68
2022/12/26 10:42:31;;;;;;;761.90;701.40;;;10.80;34.60;;;;;;5109014;28;20459;-68
2022/12/26 10:44:58;;;;;;;499.10;463.03;;;10.90;35.10;;;;;;5109343;28;20415;-69
2022/12/26 10:47:31;;;;;;;478.80;444.53;;;11.00;35.20;;;;;;5080628;28;20413;-69
2022/12/26 10:50:00;;;;;;;651.67;602.33;;;11.10;35.50;;;;;;5077837;28;20427;-69
2022/12/26 10:52:31;;;;;;;820.80;756.87;;;11.00;34.10;;;;;;5092970;28;20411;-68
2022/12/26 10:54:58;;;;;;;368.30;343.20;;;11.10;34.20;;;;;;5090158;28;20458;-69
2022/12/26 10:57:27;;;;;;;718.17;663.27;;;11.00;34.80;;;;;;5072590;28;20450;-69
2022/12/26 10:59:54;;;;;;;652.03;602.73;;;10.90;35.10;;;;;;5072497;28;20479;-69
2022/12/26 11:02:31;;;;;;;634.80;587.77;;;11.10;35.30;;;;;;5072307;28;20479;-69
2022/12/26 11:04:59;;;;;;;657.97;609.83;;;11.00;34.50;;;;;;5072844;28;20448;-69
2022/12/26 11:07:28;;;;;;;736.80;679.70;;;11.10;34.40;;;;;;5072684;28;20412;-70
2022/12/26 11:10:00;;;;;;;643.17;595.37;;;11.00;35.00;;;;;;5073161;28;20428;-69
2022/12/26 11:12:39;;;;;;;680.57;624.57;;;10.90;36.00;;;;;;5072352;28;20499;-71
2022/12/26 11:15:18;;;;;;;686.33;632.60;;;10.90;36.70;;;;;;5071273;28;20414;-72
2022/12/26 11:17:46;;;;;;;480.87;447.80;;;11.00;35.90;;;;;;5072111;28;20409;-71
2022/12/26 11:20:14;;;;;;;528.53;488.53;;;10.90;36.20;;;;;;5074413;28;20440;-71
2022/12/26 11:22:44;;;;;;;690.07;635.90;;;10.90;36.40;;;;;;5092075;28;20423;-71
2022/12/26 11:25:20;;;;;;;703.23;649.73;;;10.90;36.00;;;;;;5091315;28;20409;-70
2022/12/26 11:27:49;;;;;;;480.63;443.20;;;11.00;36.30;;;;;;5092323;28;20397;-72
2022/12/26 11:30:21;;;;;;;556.97;517.77;;;11.20;35.80;;;;;;5092126;28;20450;-71
2022/12/26 11:33:04;;;;;;;675.33;622.23;;;11.10;35.80;;;;;;5094084;28;20476;-71
2022/12/26 11:35:35;;;;;;;633.97;585.30;;;11.10;35.80;;;;;;5096066;28;20411;-71
2022/12/26 11:38:06;;;;;;;461.60;425.40;;;11.00;36.40;;;;;;5096466;28;20407;-69
2022/12/26 11:41:30;;;;;;;481.70;447.83;;;11.00;36.00;;;;;;5110818;22;20974;-71
2022/12/26 11:43:32;;;;;;;349.57;325.00;;;11.10;35.30;;;;;;5095267;28;20937;-71
2022/12/26 11:45:57;;;;;;;416.17;387.07;;;11.00;33.60;;;;;;5095655;28;20465;-71
2022/12/26 11:48:25;;;;;;;441.77;410.87;;;11.10;33.70;;;;;;5095731;28;20795;-71
2022/12/26 11:50:51;;;;;;;530.40;494.03;;;11.10;32.90;;;;;;5095428;28;20223;-71
2022/12/26 11:53:20;;;;;;;617.93;571.47;;;11.10;31.90;;;;;;5095453;28;20410;-71
2022/12/26 11:56:00;;;;;;;521.97;482.20;;;11.10;31.90;;;;;;5095382;28;20462;-71
2022/12/26 11:58:29;;;;;;;561.60;519.23;;;11.10;30.90;;;;;;5095475;28;20407;-71
2022/12/26 12:00:57;;;;;;;549.30;509.70;;;11.10;28.60;;;;;;5095333;28;20490;-71
2022/12/26 12:03:38;;;;;;;429.83;392.70;;;11.10;30.50;;;;;;5095248;28;20411;-71
2022/12/26 12:06:38;;;;;;;629.87;577.67;;;11.10;30.20;;;;;;5095497;28;20980;-71
2022/12/26 12:09:09;;;;;;;680.23;627.70;;;11.30;29.40;;;;;;5095842;28;20403;-71
2022/12/26 12:11:41;;;;;;;486.43;451.20;;;11.20;28.40;;;;;;5094851;28;20431;-70
2022/12/26 12:14:40;;;;;;;651.23;602.73;;;11.20;29.20;;;;;;5094919;28;20412;-71
2022/12/26 12:17:35;;;;;;;571.17;530.53;;;11.10;29.10;;;;;;5095143;28;20869;-70
2022/12/26 12:20:18;;;;;;;787.40;728.20;;;10.80;29.50;;;;;;5110961;28;20436;-71
2022/12/26 12:23:06;;;;;;;552.60;514.10;;;10.80;29.40;;;;;;5095034;28;20407;-72
2022/12/26 12:25:42;;;;;;;519.60;481.67;;;10.80;29.20;;;;;;5095124;28;20434;-70
2022/12/26 12:28:32;;;;;;;526.93;486.70;;;10.70;28.90;;;;;;5094787;28;20399;-69
2022/12/26 12:31:33;;;;;;;534.97;495.80;;;10.70;29.50;;;;;;5094697;28;20445;-70
2022/12/26 12:34:11;;;;;;;538.87;503.30;;;10.80;29.60;;;;;;5094749;28;20425;-68
2022/12/26 12:37:11;;;;;;;479.87;445.77;;;10.70;29.20;;;;;;5094455;28;20415;-69
2022/12/26 12:40:04;;;;;;;542.50;503.27;;;10.60;28.60;;;;;;5083824;28;20429;-69
2022/12/26 12:42:52;;;;;;;651.43;601.00;;;10.80;28.50;;;;;;5094227;28;20455;-70
2022/12/26 12:45:30;;;;;;;594.93;551.27;;;10.70;29.10;;;;;;5093710;28;20414;-69
2022/12/26 12:48:22;;;;;;;504.53;467.33;;;10.70;28.60;;;;;;5094647;28;20512;-70
2022/12/26 12:51:02;;;;;;;482.67;446.90;;;10.60;28.90;;;;;;5094610;28;20465;-70
2022/12/26 12:53:45;;;;;;;410.07;381.47;;;10.70;28.50;;;;;;5094738;28;20414;-69
2022/12/26 12:56:56;;;;;;;379.37;350.47;;;10.60;28.60;;;;;;5094337;28;20778;-69
2022/12/26 12:59:25;;;;;;;447.40;415.07;;;10.70;29.00;;;;;;5011749;28;20426;-69
2022/12/26 13:01:54;;;;;;;585.27;543.33;;;10.70;27.00;;;;;;5011412;28;20852;-70
2022/12/26 13:04:23;;;;;;;530.67;492.37;;;10.60;25.70;;;;;;5043456;28;20427;-70
2022/12/26 13:06:58;;;;;;;676.23;625.47;;;10.70;26.70;;;;;;5093607;28;20426;-68
2022/12/26 13:09:44;;;;;;;486.33;448.70;;;10.60;26.30;;;;;;5093634;28;20463;-69
2022/12/26 13:12:24;;;;;;;386.67;358.97;;;10.60;26.00;;;;;;5080548;28;20467;-69
2022/12/26 13:14:52;;;;;;;537.63;498.77;;;10.70;26.10;;;;;;5073910;28;20420;-69
2022/12/26 13:17:27;;;;;;;450.63;418.77;;;10.80;26.40;;;;;;5073545;28;20451;-69
2022/12/26 13:20:12;;;;;;;774.73;711.00;;;10.80;25.00;;;;;;5087407;28;20457;-68
2022/12/26 13:25:35;;;;;;;447.87;415.00;;;10.70;25.00;;;;;;5094498;28;20508;-70
2022/12/26 13:28:08;;;;;;;404.10;376.07;;;10.80;24.70;;;;;;5094291;28;20407;-72
2022/12/26 13:30:34;;;;;;;485.93;449.57;;;10.80;25.00;;;;;;5109441;28;20492;-68
2022/12/26 13:33:00;;;;;;;385.73;358.53;;;10.80;24.30;;;;;;5093457;28;20419;-71
2022/12/26 13:35:51;;;;;;;730.30;678.83;;;10.80;23.10;;;;;;5093382;28;20783;-75
2022/12/26 13:38:17;;;;;;;529.67;491.53;;;10.80;24.40;;;;;;5093519;28;20396;-69
2022/12/26 13:44:03;;;;;;;700.00;650.70;;;10.70;23.70;;;;;;5093702;28;20401;-69
2022/12/26 13:46:35;;;;;;;377.20;347.43;;;10.80;23.60;;;;;;5093346;28;20432;-70
2022/12/26 13:49:01;;;;;;;514.40;478.73;;;10.80;23.10;;;;;;5092965;28;20420;-70
2022/12/26 13:51:47;;;;;;;615.67;571.50;;;10.80;23.90;;;;;;5093129;28;20441;-70
2022/12/26 13:54:14;;;;;;;331.17;306.50;;;10.70;23.10;;;;;;5093207;28;20943;-70
2022/12/26 13:56:39;;;;;;;447.97;417.53;;;10.70;23.10;;;;;;5093763;28;20412;-70
2022/12/26 14:00:03;;;;;;;342.53;317.80;;;10.80;22.40;;;;;;5093362;28;20556;-70
2022/12/26 14:02:50;;;;;;;495.07;459.17;;;10.90;23.20;;;;;;5073073;28;20225;-70
2022/12/26 14:05:37;;;;;;;262.83;240.80;;;10.80;22.90;;;;;;5092830;28;20406;-69
2022/12/26 14:08:28;;;;;;;343.67;319.00;;;10.80;23.10;;;;;;5093029;28;20445;-71
2022/12/26 14:11:17;;;;;;;468.07;433.67;;;10.70;23.10;;;;;;5092852;28;20492;-70
2022/12/26 14:14:07;;;;;;;434.40;404.13;;;10.60;22.50;;;;;;5092544;28;20445;-70
2022/12/26 14:17:01;;;;;;;445.77;414.87;;;10.60;23.00;;;;;;5092704;28;20931;-70
2022/12/26 14:19:46;;;;;;;378.00;352.97;;;10.60;23.00;;;;;;5092720;28;20492;-71
2022/12/26 14:22:22;;;;;;;512.07;474.17;;;10.60;22.60;;;;;;5092101;28;20443;-71
2022/12/26 14:25:25;;;;;;;705.23;654.30;;;10.60;22.20;;;;;;5092773;28;20439;-70
2022/12/26 14:28:04;;;;;;;617.20;570.40;;;10.60;23.00;;;;;;5072662;28;20458;-71
2022/12/26 14:31:03;;;;;;;443.80;410.63;;;10.60;22.70;;;;;;5070956;28;20462;-71
2022/12/26 14:33:32;;;;;;;559.87;520.43;;;10.60;22.70;;;;;;5082250;28;20423;-72
2022/12/26 14:36:06;;;;;;;333.37;309.70;;;10.50;22.20;;;;;;5088665;28;20419;-71
2022/12/26 14:38:43;;;;;;;479.77;443.83;;;10.60;21.30;;;;;;5088538;28;20750;-71
2022/12/26 14:44:21;;;;;;;564.40;523.53;;;10.60;21.50;;;;;;5068043;28;20501;-71
2022/12/26 14:46:49;;;;;;;534.73;496.03;;;10.60;21.10;;;;;;5068840;28;20412;-73
2022/12/26 14:49:31;;;;;;;379.70;351.97;;;10.50;20.80;;;;;;5066279;28;20463;-74
2022/12/26 14:52:23;;;;;;;391.17;363.00;;;10.60;21.50;;;;;;5087377;28;20950;-74
2022/12/26 14:54:50;;;;;;;914.37;845.30;;;10.50;21.30;;;;;;5063295;28;20484;-74